sensor_id;sensor_type;location;lat;lon;timestamp;pressure;altitude;pressure_sealevel;temperature;humidity
47710;BME280;33473;51.640;5.892;2023-03-12T00:08:41;101000;;;8.3;43.0
47710;BME280;33473;51.640;5.892;2023-03-12T00:22:00;101000;;;8.3;43.0
47710;BME280;33473;51.640;5.892;2023-03-12T00:35:20;101000;;;8.4;43.0
47710;BME280;33473;51.640;5.892;2023-03-12T00:48:40;101000;;;8.4;42.0
47710;BME280;33473;51.640;5.892;2023-03-12T01:01:59;101000;;;8.5;41.0
47710;BME280;33473;51.640;5.892;2023-03-12T01:15:19;101000;;;8.5;41.0
47710;BME280;33473;51.640;5.892;2023-03-12T01:28:39;101000;;;8.6;41.0
47710;BME280;33473;51.640;5.892;2023-03-12T01:41:58;100900;;;8.5;41.0
47710;BME280;33473;51.640;5.892;2023-03-12T01:55:18;100900;;;8.6;42.0
47710;BME280;33473;51.640;5.892;2023-03-12T02:08:38;100900;;;8.5;42.0
47710;BME280;33473;51.640;5.892;2023-03-12T02:21:57;100900;;;8.5;43.0
47710;BME280;33473;51.640;5.892;2023-03-12T02:35:17;100900;;;8.4;43.0
47710;BME280;33473;51.640;5.892;2023-03-12T02:48:37;100900;;;8.5;43.0
47710;BME280;33473;51.640;5.892;2023-03-12T03:01:56;100900;;;8.3;43.0
47710;BME280;33473;51.640;5.892;2023-03-12T03:15:16;100900;;;8.4;43.0
47710;BME280;33473;51.640;5.892;2023-03-12T03:28:36;100900;;;8.5;43.0
47710;BME280;33473;51.640;5.892;2023-03-12T03:41:56;100900;;;8.7;43.0
47710;BME280;33473;51.640;5.892;2023-03-12T03:55:15;100800;;;8.6;43.0
47710;BME280;33473;51.640;5.892;2023-03-12T04:08:35;100800;;;9.0;43.0
47710;BME280;33473;51.640;5.892;2023-03-12T04:21:55;100800;;;9.1;42.0
47710;BME280;33473;51.640;5.892;2023-03-12T04:35:14;100800;;;9.1;42.0
47710;BME280;33473;51.640;5.892;2023-03-12T04:48:34;100800;;;9.0;43.0
47710;BME280;33473;51.640;5.892;2023-03-12T05:01:54;100700;;;8.7;44.0
47710;BME280;33473;51.640;5.892;2023-03-12T05:15:13;100700;;;8.5;44.0
47710;BME280;33473;51.640;5.892;2023-03-12T05:28:33;100700;;;8.5;45.0
47710;BME280;33473;51.640;5.892;2023-03-12T05:41:53;100700;;;8.5;46.0
47710;BME280;33473;51.640;5.892;2023-03-12T05:55:12;100700;;;8.9;46.0
47710;BME280;33473;51.640;5.892;2023-03-12T06:08:32;100700;;;9.0;46.0
47710;BME280;33473;51.640;5.892;2023-03-12T06:21:52;100700;;;9.0;47.0
47710;BME280;33473;51.640;5.892;2023-03-12T06:35:11;100700;;;9.2;47.0
47710;BME280;33473;51.640;5.892;2023-03-12T06:48:31;100700;;;9.2;48.0
47710;BME280;33473;51.640;5.892;2023-03-12T07:01:51;100700;;;9.2;50.0
47710;BME280;33473;51.640;5.892;2023-03-12T07:15:11;100700;;;9.2;52.0
47710;BME280;33473;51.640;5.892;2023-03-12T07:28:30;100700;;;9.1;54.0
47710;BME280;33473;51.640;5.892;2023-03-12T07:41:50;100700;;;9.3;54.0
47710;BME280;33473;51.640;5.892;2023-03-12T07:55:10;100700;;;9.2;55.0
47710;BME280;33473;51.640;5.892;2023-03-12T08:08:29;100700;;;9.5;55.0
47710;BME280;33473;51.640;5.892;2023-03-12T08:21:49;100600;;;9.6;56.0
47710;BME280;33473;51.640;5.892;2023-03-12T08:35:09;100700;;;9.9;57.0
47710;BME280;33473;51.640;5.892;2023-03-12T08:48:28;100700;;;10.3;57.0
47710;BME280;33473;51.640;5.892;2023-03-12T09:01:48;100700;;;10.3;57.0
47710;BME280;33473;51.640;5.892;2023-03-12T09:15:08;100700;;;10.4;58.0
47710;BME280;33473;51.640;5.892;2023-03-12T09:28:27;100700;;;10.6;59.0
47710;BME280;33473;51.640;5.892;2023-03-12T09:41:47;100700;;;11.3;60.0
47710;BME280;33473;51.640;5.892;2023-03-12T09:55:07;100700;;;10.9;63.0
47710;BME280;33473;51.640;5.892;2023-03-12T10:08:26;100700;;;11.5;63.0
47710;BME280;33473;51.640;5.892;2023-03-12T10:21:46;100700;;;11.7;64.0
47710;BME280;33473;51.640;5.892;2023-03-12T10:35:06;100700;;;12.0;65.0
47710;BME280;33473;51.640;5.892;2023-03-12T10:48:25;100700;;;12.8;65.0
47710;BME280;33473;51.640;5.892;2023-03-12T11:01:45;100700;;;13.1;64.0
47710;BME280;33473;51.640;5.892;2023-03-12T11:15:05;100700;;;12.9;65.0
47710;BME280;33473;51.640;5.892;2023-03-12T11:28:24;100700;;;12.8;65.0
47710;BME280;33473;51.640;5.892;2023-03-12T11:41:44;100700;;;12.9;68.0
47710;BME280;33473;51.640;5.892;2023-03-12T11:55:04;100700;;;13.0;67.0
47710;BME280;33473;51.640;5.892;2023-03-12T12:08:23;100700;;;13.4;68.0
47710;BME280;33473;51.640;5.892;2023-03-12T12:21:43;100700;;;13.5;66.0
47710;BME280;33473;51.640;5.892;2023-03-12T12:35:03;100600;;;14.3;65.0
47710;BME280;33473;51.640;5.892;2023-03-12T12:48:22;100600;;;14.3;63.0
47710;BME280;33473;51.640;5.892;2023-03-12T13:01:42;100600;;;15.5;59.0
47710;BME280;33473;51.640;5.892;2023-03-12T13:15:02;100600;;;16.0;57.0
47710;BME280;33473;51.640;5.892;2023-03-12T13:28:21;100600;;;16.0;55.0
47710;BME280;33473;51.640;5.892;2023-03-12T13:41:41;100600;;;15.6;54.0
47710;BME280;33473;51.640;5.892;2023-03-12T13:55:01;100600;;;14.7;57.0
47710;BME280;33473;51.640;5.892;2023-03-12T14:08:20;100600;;;14.0;56.0
47710;BME280;33473;51.640;5.892;2023-03-12T14:21:40;100600;;;15.3;55.0
47710;BME280;33473;51.640;5.892;2023-03-12T14:35:00;100600;;;15.1;55.0
47710;BME280;33473;51.640;5.892;2023-03-12T14:48:19;100600;;;15.3;53.0
47710;BME280;33473;51.640;5.892;2023-03-12T15:01:39;100600;;;15.3;53.0
47710;BME280;33473;51.640;5.892;2023-03-12T15:14:59;100600;;;15.1;53.0
47710;BME280;33473;51.640;5.892;2023-03-12T15:28:18;100600;;;14.9;53.0
47710;BME280;33473;51.640;5.892;2023-03-12T15:41:38;100600;;;15.2;53.0
47710;BME280;33473;51.640;5.892;2023-03-12T15:54:58;100600;;;15.1;53.0
47710;BME280;33473;51.640;5.892;2023-03-12T16:08:17;100600;;;15.8;51.0
47710;BME280;33473;51.640;5.892;2023-03-12T16:21:37;100600;;;15.5;52.0
47710;BME280;33473;51.640;5.892;2023-03-12T16:34:57;100600;;;16.4;50.0
47710;BME280;33473;51.640;5.892;2023-03-12T16:48:17;100600;;;16.3;49.0
47710;BME280;33473;51.640;5.892;2023-03-12T17:01:36;100600;;;15.9;48.0
47710;BME280;33473;51.640;5.892;2023-03-12T17:14:56;100600;;;15.6;48.0
47710;BME280;33473;51.640;5.892;2023-03-12T17:28:16;100600;;;15.4;49.0
47710;BME280;33473;51.640;5.892;2023-03-12T17:41:35;100600;;;14.7;50.0
47710;BME280;33473;51.640;5.892;2023-03-12T17:54:55;100600;;;15.7;48.0
47710;BME280;33473;51.640;5.892;2023-03-12T18:08:15;100600;;;15.0;50.0
47710;BME280;33473;51.640;5.892;2023-03-12T18:21:34;100600;;;15.5;48.0
47710;BME280;33473;51.640;5.892;2023-03-12T18:34:54;100600;;;14.9;50.0
47710;BME280;33473;51.640;5.892;2023-03-12T18:48:14;100600;;;15.0;51.0
47710;BME280;33473;51.640;5.892;2023-03-12T19:01:33;100600;;;15.5;49.0
47710;BME280;33473;51.640;5.892;2023-03-12T19:14:53;100600;;;15.4;50.0
47710;BME280;33473;51.640;5.892;2023-03-12T19:28:13;100600;;;15.5;49.0
47710;BME280;33473;51.640;5.892;2023-03-12T19:41:32;100600;;;15.3;50.0
47710;BME280;33473;51.640;5.892;2023-03-12T19:54:52;100600;;;15.7;49.0
47710;BME280;33473;51.640;5.892;2023-03-12T20:08:12;100600;;;16.0;48.0
47710;BME280;33473;51.640;5.892;2023-03-12T20:21:32;100500;;;15.8;48.0
47710;BME280;33473;51.640;5.892;2023-03-12T20:34:51;100500;;;15.5;49.0
47710;BME280;33473;51.640;5.892;2023-03-12T20:48:11;100500;;;15.3;49.0
47710;BME280;33473;51.640;5.892;2023-03-12T21:01:31;100500;;;15.3;49.0
47710;BME280;33473;51.640;5.892;2023-03-12T21:14:50;100500;;;15.0;50.0
47710;BME280;33473;51.640;5.892;2023-03-12T21:28:10;100500;;;14.7;51.0
47710;BME280;33473;51.640;5.892;2023-03-12T21:41:30;100500;;;14.8;51.0
47710;BME280;33473;51.640;5.892;2023-03-12T21:54:49;100400;;;14.7;51.0
47710;BME280;33473;51.640;5.892;2023-03-12T22:08:09;100400;;;14.9;50.0
47710;BME280;33473;51.640;5.892;2023-03-12T22:21:29;100400;;;15.0;50.0
47710;BME280;33473;51.640;5.892;2023-03-12T22:34:48;100300;;;15.1;49.0
47710;BME280;33473;51.640;5.892;2023-03-12T22:48:08;100300;;;15.2;50.0
47710;BME280;33473;51.640;5.892;2023-03-12T23:01:28;100300;;;15.5;49.0
47710;BME280;33473;51.640;5.892;2023-03-12T23:14:48;100300;;;15.4;51.0
47710;BME280;33473;51.640;5.892;2023-03-12T23:28:07;100300;;;15.4;52.0
47710;BME280;33473;51.640;5.892;2023-03-12T23:41:27;100200;;;15.2;53.0
47710;BME280;33473;51.640;5.892;2023-03-12T23:54:46;100200;;;15.1;54.0
